sensor_id;sensor_type;location;lat;lon;timestamp;P1;durP1;ratioP1;P2;durP2;ratioP2
15126;SDS011;7664;52.008;4.748;2022-09-04T00:01:56;7.47;;;5.63;;
15126;SDS011;7664;52.008;4.748;2022-09-04T00:04:40;8.27;;;6.25;;
15126;SDS011;7664;52.008;4.748;2022-09-04T00:07:16;8.48;;;6.40;;
15126;SDS011;7664;52.008;4.748;2022-09-04T00:09:53;7.50;;;5.60;;
15126;SDS011;7664;52.008;4.748;2022-09-04T00:12:39;7.45;;;5.95;;
15126;SDS011;7664;52.008;4.748;2022-09-04T00:15:12;9.48;;;6.13;;
15126;SDS011;7664;52.008;4.748;2022-09-04T00:17:48;6.55;;;5.88;;
15126;SDS011;7664;52.008;4.748;2022-09-04T00:20:25;7.50;;;6.72;;
15126;SDS011;7664;52.008;4.748;2022-09-04T00:23:01;7.55;;;6.20;;
15126;SDS011;7664;52.008;4.748;2022-09-04T00:25:37;8.25;;;7.07;;
15126;SDS011;7664;52.008;4.748;2022-09-04T00:28:11;8.55;;;6.90;;
15126;SDS011;7664;52.008;4.748;2022-09-04T00:30:48;7.80;;;6.43;;
15126;SDS011;7664;52.008;4.748;2022-09-04T00:33:23;11.07;;;7.47;;
15126;SDS011;7664;52.008;4.748;2022-09-04T00:35:58;9.27;;;7.40;;
15126;SDS011;7664;52.008;4.748;2022-09-04T00:38:31;8.82;;;6.57;;
15126;SDS011;7664;52.008;4.748;2022-09-04T00:41:10;7.40;;;6.47;;
15126;SDS011;7664;52.008;4.748;2022-09-04T00:43:53;10.55;;;7.78;;
15126;SDS011;7664;52.008;4.748;2022-09-04T00:46:36;9.85;;;6.82;;
15126;SDS011;7664;52.008;4.748;2022-09-04T00:49:32;8.43;;;6.63;;
15126;SDS011;7664;52.008;4.748;2022-09-04T00:52:19;7.68;;;6.60;;
15126;SDS011;7664;52.008;4.748;2022-09-04T00:55:12;8.48;;;7.25;;
15126;SDS011;7664;52.008;4.748;2022-09-04T00:58:02;8.07;;;7.03;;
15126;SDS011;7664;52.008;4.748;2022-09-04T01:01:07;10.32;;;7.57;;
15126;SDS011;7664;52.008;4.748;2022-09-04T01:03:50;8.52;;;6.30;;
15126;SDS011;7664;52.008;4.748;2022-09-04T01:06:55;10.55;;;7.45;;
15126;SDS011;7664;52.008;4.748;2022-09-04T01:09:41;9.20;;;6.72;;
15126;SDS011;7664;52.008;4.748;2022-09-04T01:12:25;8.30;;;7.18;;
15126;SDS011;7664;52.008;4.748;2022-09-04T01:15:04;9.05;;;7.10;;
15126;SDS011;7664;52.008;4.748;2022-09-04T01:17:40;8.85;;;7.20;;
15126;SDS011;7664;52.008;4.748;2022-09-04T01:20:19;10.57;;;7.07;;
15126;SDS011;7664;52.008;4.748;2022-09-04T01:23:09;7.68;;;6.85;;
15126;SDS011;7664;52.008;4.748;2022-09-04T01:25:51;9.40;;;7.10;;
15126;SDS011;7664;52.008;4.748;2022-09-04T01:28:28;9.00;;;7.47;;
15126;SDS011;7664;52.008;4.748;2022-09-04T01:31:03;9.05;;;6.97;;
15126;SDS011;7664;52.008;4.748;2022-09-04T01:33:41;8.07;;;6.88;;
15126;SDS011;7664;52.008;4.748;2022-09-04T01:36:15;10.00;;;7.25;;
15126;SDS011;7664;52.008;4.748;2022-09-04T01:38:48;8.07;;;7.15;;
15126;SDS011;7664;52.008;4.748;2022-09-04T01:41:21;8.18;;;7.28;;
15126;SDS011;7664;52.008;4.748;2022-09-04T01:43:53;7.75;;;6.93;;
15126;SDS011;7664;52.008;4.748;2022-09-04T01:46:25;8.80;;;7.75;;
15126;SDS011;7664;52.008;4.748;2022-09-04T01:49:15;8.93;;;7.13;;
15126;SDS011;7664;52.008;4.748;2022-09-04T01:51:52;10.18;;;7.97;;
15126;SDS011;7664;52.008;4.748;2022-09-04T01:54:41;10.27;;;8.15;;
15126;SDS011;7664;52.008;4.748;2022-09-04T01:57:20;8.48;;;7.25;;
15126;SDS011;7664;52.008;4.748;2022-09-04T02:00:04;7.82;;;6.95;;
15126;SDS011;7664;52.008;4.748;2022-09-04T02:02:41;7.75;;;6.25;;
15126;SDS011;7664;52.008;4.748;2022-09-04T02:05:22;8.05;;;6.68;;
15126;SDS011;7664;52.008;4.748;2022-09-04T02:07:59;7.13;;;6.40;;
15126;SDS011;7664;52.008;4.748;2022-09-04T02:10:36;10.05;;;6.93;;
15126;SDS011;7664;52.008;4.748;2022-09-04T02:13:15;8.13;;;7.13;;
15126;SDS011;7664;52.008;4.748;2022-09-04T02:15:52;8.27;;;7.20;;
15126;SDS011;7664;52.008;4.748;2022-09-04T02:18:33;9.25;;;7.00;;
15126;SDS011;7664;52.008;4.748;2022-09-04T02:21:12;8.82;;;7.28;;
15126;SDS011;7664;52.008;4.748;2022-09-04T02:23:51;7.28;;;6.28;;
15126;SDS011;7664;52.008;4.748;2022-09-04T02:26:28;8.80;;;6.57;;
15126;SDS011;7664;52.008;4.748;2022-09-04T02:29:02;11.07;;;6.90;;
15126;SDS011;7664;52.008;4.748;2022-09-04T02:31:39;9.60;;;7.18;;
15126;SDS011;7664;52.008;4.748;2022-09-04T02:34:16;8.70;;;6.85;;
15126;SDS011;7664;52.008;4.748;2022-09-04T02:36:51;9.13;;;6.45;;
15126;SDS011;7664;52.008;4.748;2022-09-04T02:39:27;8.50;;;6.53;;
15126;SDS011;7664;52.008;4.748;2022-09-04T02:42:08;8.13;;;6.05;;
15126;SDS011;7664;52.008;4.748;2022-09-04T02:44:47;9.57;;;7.38;;
15126;SDS011;7664;52.008;4.748;2022-09-04T02:47:29;9.52;;;7.43;;
15126;SDS011;7664;52.008;4.748;2022-09-04T02:50:02;8.77;;;6.70;;
15126;SDS011;7664;52.008;4.748;2022-09-04T02:52:45;8.38;;;7.10;;
15126;SDS011;7664;52.008;4.748;2022-09-04T02:55:29;9.35;;;7.63;;
15126;SDS011;7664;52.008;4.748;2022-09-04T02:58:11;9.05;;;7.25;;
15126;SDS011;7664;52.008;4.748;2022-09-04T03:00:52;7.68;;;6.80;;
15126;SDS011;7664;52.008;4.748;2022-09-04T03:03:29;8.88;;;7.85;;
15126;SDS011;7664;52.008;4.748;2022-09-04T03:06:04;8.23;;;6.78;;
15126;SDS011;7664;52.008;4.748;2022-09-04T03:08:37;9.13;;;7.10;;
15126;SDS011;7664;52.008;4.748;2022-09-04T03:11:12;9.90;;;8.15;;
15126;SDS011;7664;52.008;4.748;2022-09-04T03:13:45;14.10;;;8.35;;
15126;SDS011;7664;52.008;4.748;2022-09-04T03:16:22;9.70;;;7.47;;
15126;SDS011;7664;52.008;4.748;2022-09-04T03:19:00;10.25;;;8.38;;
15126;SDS011;7664;52.008;4.748;2022-09-04T03:21:34;9.65;;;7.68;;
15126;SDS011;7664;52.008;4.748;2022-09-04T03:24:08;10.85;;;7.82;;
15126;SDS011;7664;52.008;4.748;2022-09-04T03:26:40;10.50;;;6.93;;
15126;SDS011;7664;52.008;4.748;2022-09-04T03:29:11;10.48;;;8.45;;
15126;SDS011;7664;52.008;4.748;2022-09-04T03:31:50;10.48;;;7.97;;
15126;SDS011;7664;52.008;4.748;2022-09-04T03:34:27;9.88;;;7.72;;
15126;SDS011;7664;52.008;4.748;2022-09-04T03:37:16;12.98;;;9.45;;
15126;SDS011;7664;52.008;4.748;2022-09-04T03:39:57;10.48;;;8.75;;
15126;SDS011;7664;52.008;4.748;2022-09-04T03:42:36;10.20;;;8.60;;
15126;SDS011;7664;52.008;4.748;2022-09-04T03:45:19;11.00;;;8.25;;
15126;SDS011;7664;52.008;4.748;2022-09-04T03:48:02;11.50;;;9.35;;
15126;SDS011;7664;52.008;4.748;2022-09-04T03:50:42;11.18;;;8.70;;
15126;SDS011;7664;52.008;4.748;2022-09-04T03:53:20;9.88;;;8.68;;
15126;SDS011;7664;52.008;4.748;2022-09-04T03:56:02;9.50;;;8.43;;
15126;SDS011;7664;52.008;4.748;2022-09-04T03:58:52;11.88;;;8.48;;
15126;SDS011;7664;52.008;4.748;2022-09-04T04:01:30;9.50;;;8.00;;
15126;SDS011;7664;52.008;4.748;2022-09-04T04:04:15;10.38;;;8.38;;
15126;SDS011;7664;52.008;4.748;2022-09-04T04:07:05;11.93;;;9.23;;
15126;SDS011;7664;52.008;4.748;2022-09-04T04:09:48;11.13;;;9.48;;
15126;SDS011;7664;52.008;4.748;2022-09-04T04:12:35;9.80;;;8.70;;
15126;SDS011;7664;52.008;4.748;2022-09-04T04:15:19;12.43;;;9.73;;
15126;SDS011;7664;52.008;4.748;2022-09-04T04:17:58;13.75;;;9.93;;
15126;SDS011;7664;52.008;4.748;2022-09-04T04:20:42;9.48;;;8.27;;
15126;SDS011;7664;52.008;4.748;2022-09-04T04:23:28;12.95;;;9.50;;
15126;SDS011;7664;52.008;4.748;2022-09-04T04:26:27;11.82;;;9.85;;
15126;SDS011;7664;52.008;4.748;2022-09-04T04:29:10;11.95;;;9.07;;
15126;SDS011;7664;52.008;4.748;2022-09-04T04:31:54;12.07;;;10.18;;
15126;SDS011;7664;52.008;4.748;2022-09-04T04:34:40;11.23;;;9.13;;
15126;SDS011;7664;52.008;4.748;2022-09-04T04:37:26;12.60;;;9.50;;
15126;SDS011;7664;52.008;4.748;2022-09-04T04:40:05;12.45;;;9.27;;
15126;SDS011;7664;52.008;4.748;2022-09-04T04:42:42;12.18;;;8.88;;
15126;SDS011;7664;52.008;4.748;2022-09-04T04:45:18;13.73;;;10.77;;
15126;SDS011;7664;52.008;4.748;2022-09-04T04:48:21;10.60;;;9.32;;
15126;SDS011;7664;52.008;4.748;2022-09-04T04:51:32;12.98;;;10.50;;
15126;SDS011;7664;52.008;4.748;2022-09-04T04:54:22;11.35;;;9.27;;
15126;SDS011;7664;52.008;4.748;2022-09-04T04:57:00;13.73;;;9.75;;
15126;SDS011;7664;52.008;4.748;2022-09-04T04:59:41;12.60;;;10.02;;
15126;SDS011;7664;52.008;4.748;2022-09-04T05:02:16;13.88;;;10.90;;
15126;SDS011;7664;52.008;4.748;2022-09-04T05:04:52;17.67;;;13.20;;
15126;SDS011;7664;52.008;4.748;2022-09-04T05:07:28;17.70;;;12.57;;
15126;SDS011;7664;52.008;4.748;2022-09-04T05:10:07;15.82;;;11.73;;
15126;SDS011;7664;52.008;4.748;2022-09-04T05:15:34;15.13;;;12.13;;
15126;SDS011;7664;52.008;4.748;2022-09-04T05:18:27;15.50;;;12.27;;
15126;SDS011;7664;52.008;4.748;2022-09-04T05:20:58;14.70;;;11.85;;
15126;SDS011;7664;52.008;4.748;2022-09-04T05:23:36;17.15;;;12.65;;
15126;SDS011;7664;52.008;4.748;2022-09-04T05:26:15;17.20;;;12.75;;
15126;SDS011;7664;52.008;4.748;2022-09-04T05:28:54;14.57;;;11.10;;
15126;SDS011;7664;52.008;4.748;2022-09-04T05:31:29;19.25;;;12.73;;
15126;SDS011;7664;52.008;4.748;2022-09-04T05:34:06;16.30;;;13.02;;
15126;SDS011;7664;52.008;4.748;2022-09-04T05:36:42;17.85;;;12.57;;
15126;SDS011;7664;52.008;4.748;2022-09-04T05:39:17;15.50;;;12.77;;
15126;SDS011;7664;52.008;4.748;2022-09-04T05:41:59;15.40;;;11.75;;
15126;SDS011;7664;52.008;4.748;2022-09-04T05:44:48;13.98;;;11.35;;
15126;SDS011;7664;52.008;4.748;2022-09-04T05:47:26;18.33;;;12.60;;
15126;SDS011;7664;52.008;4.748;2022-09-04T05:50:10;18.25;;;13.45;;
15126;SDS011;7664;52.008;4.748;2022-09-04T05:55:58;18.20;;;12.20;;
15126;SDS011;7664;52.008;4.748;2022-09-04T05:58:55;15.13;;;11.30;;
15126;SDS011;7664;52.008;4.748;2022-09-04T06:01:38;14.48;;;11.95;;
15126;SDS011;7664;52.008;4.748;2022-09-04T06:04:27;14.88;;;11.48;;
15126;SDS011;7664;52.008;4.748;2022-09-04T06:07:11;15.38;;;11.95;;
15126;SDS011;7664;52.008;4.748;2022-09-04T06:09:45;14.18;;;11.55;;
15126;SDS011;7664;52.008;4.748;2022-09-04T06:12:27;15.13;;;11.60;;
15126;SDS011;7664;52.008;4.748;2022-09-04T06:15:29;11.65;;;9.68;;
15126;SDS011;7664;52.008;4.748;2022-09-04T06:18:08;20.02;;;13.10;;
15126;SDS011;7664;52.008;4.748;2022-09-04T06:20:54;16.75;;;12.82;;
15126;SDS011;7664;52.008;4.748;2022-09-04T06:23:47;15.82;;;11.40;;
15126;SDS011;7664;52.008;4.748;2022-09-04T06:26:33;14.98;;;11.30;;
15126;SDS011;7664;52.008;4.748;2022-09-04T06:29:17;15.27;;;10.18;;
15126;SDS011;7664;52.008;4.748;2022-09-04T06:32:05;13.48;;;9.63;;
15126;SDS011;7664;52.008;4.748;2022-09-04T06:35:06;13.30;;;10.20;;
15126;SDS011;7664;52.008;4.748;2022-09-04T06:37:43;13.60;;;10.45;;
15126;SDS011;7664;52.008;4.748;2022-09-04T06:40:24;12.73;;;10.23;;
15126;SDS011;7664;52.008;4.748;2022-09-04T06:43:04;14.48;;;10.80;;
15126;SDS011;7664;52.008;4.748;2022-09-04T06:45:43;13.20;;;10.50;;
15126;SDS011;7664;52.008;4.748;2022-09-04T06:48:20;14.45;;;9.93;;
15126;SDS011;7664;52.008;4.748;2022-09-04T06:50:58;15.32;;;10.85;;
15126;SDS011;7664;52.008;4.748;2022-09-04T06:53:37;16.45;;;11.02;;
15126;SDS011;7664;52.008;4.748;2022-09-04T06:56:14;10.90;;;9.23;;
15126;SDS011;7664;52.008;4.748;2022-09-04T06:58:57;17.85;;;10.48;;
15126;SDS011;7664;52.008;4.748;2022-09-04T07:01:36;12.27;;;9.95;;
15126;SDS011;7664;52.008;4.748;2022-09-04T07:04:15;12.77;;;10.50;;
15126;SDS011;7664;52.008;4.748;2022-09-04T07:06:56;14.05;;;10.20;;
15126;SDS011;7664;52.008;4.748;2022-09-04T07:09:34;12.80;;;10.45;;
15126;SDS011;7664;52.008;4.748;2022-09-04T07:12:16;13.40;;;10.05;;
15126;SDS011;7664;52.008;4.748;2022-09-04T07:17:59;10.27;;;8.65;;
15126;SDS011;7664;52.008;4.748;2022-09-04T07:20:39;10.77;;;9.13;;
15126;SDS011;7664;52.008;4.748;2022-09-04T07:23:15;14.20;;;9.93;;
15126;SDS011;7664;52.008;4.748;2022-09-04T07:25:54;13.57;;;11.30;;
15126;SDS011;7664;52.008;4.748;2022-09-04T07:28:38;11.35;;;9.18;;
15126;SDS011;7664;52.008;4.748;2022-09-04T07:31:18;12.07;;;9.60;;
15126;SDS011;7664;52.008;4.748;2022-09-04T07:33:54;14.23;;;10.20;;
15126;SDS011;7664;52.008;4.748;2022-09-04T07:36:32;13.77;;;10.18;;
15126;SDS011;7664;52.008;4.748;2022-09-04T07:39:08;15.07;;;10.90;;
15126;SDS011;7664;52.008;4.748;2022-09-04T07:41:43;15.07;;;10.95;;
15126;SDS011;7664;52.008;4.748;2022-09-04T07:44:16;13.45;;;10.77;;
15126;SDS011;7664;52.008;4.748;2022-09-04T07:46:51;13.93;;;10.57;;
15126;SDS011;7664;52.008;4.748;2022-09-04T07:49:28;15.25;;;11.05;;
15126;SDS011;7664;52.008;4.748;2022-09-04T07:52:04;13.30;;;10.68;;
15126;SDS011;7664;52.008;4.748;2022-09-04T07:54:57;13.30;;;10.43;;
15126;SDS011;7664;52.008;4.748;2022-09-04T08:00:38;15.35;;;12.80;;
15126;SDS011;7664;52.008;4.748;2022-09-04T08:03:28;17.50;;;12.93;;
15126;SDS011;7664;52.008;4.748;2022-09-04T08:06:20;15.48;;;13.15;;
15126;SDS011;7664;52.008;4.748;2022-09-04T08:09:01;15.07;;;12.10;;
15126;SDS011;7664;52.008;4.748;2022-09-04T08:11:58;18.52;;;13.38;;
15126;SDS011;7664;52.008;4.748;2022-09-04T08:14:44;19.60;;;14.05;;
15126;SDS011;7664;52.008;4.748;2022-09-04T08:17:23;20.50;;;13.60;;
15126;SDS011;7664;52.008;4.748;2022-09-04T08:20:03;22.80;;;14.38;;
15126;SDS011;7664;52.008;4.748;2022-09-04T08:22:40;20.20;;;14.20;;
15126;SDS011;7664;52.008;4.748;2022-09-04T08:25:22;17.90;;;12.75;;
15126;SDS011;7664;52.008;4.748;2022-09-04T08:27:58;21.48;;;16.63;;
15126;SDS011;7664;52.008;4.748;2022-09-04T08:30:45;22.55;;;15.98;;
15126;SDS011;7664;52.008;4.748;2022-09-04T08:33:28;19.48;;;14.98;;
15126;SDS011;7664;52.008;4.748;2022-09-04T08:36:06;17.42;;;13.52;;
15126;SDS011;7664;52.008;4.748;2022-09-04T08:38:46;18.33;;;13.35;;
15126;SDS011;7664;52.008;4.748;2022-09-04T08:54:27;20.58;;;14.93;;
15126;SDS011;7664;52.008;4.748;2022-09-04T09:00:34;19.70;;;15.15;;
15126;SDS011;7664;52.008;4.748;2022-09-04T09:06:15;22.10;;;16.33;;
15126;SDS011;7664;52.008;4.748;2022-09-04T09:09:13;19.48;;;14.45;;
15126;SDS011;7664;52.008;4.748;2022-09-04T09:18:20;19.40;;;13.23;;
15126;SDS011;7664;52.008;4.748;2022-09-04T09:21:04;21.15;;;16.33;;
15126;SDS011;7664;52.008;4.748;2022-09-04T09:23:38;21.15;;;14.25;;
15126;SDS011;7664;52.008;4.748;2022-09-04T09:26:25;19.67;;;14.80;;
15126;SDS011;7664;52.008;4.748;2022-09-04T09:29:05;18.35;;;14.23;;
15126;SDS011;7664;52.008;4.748;2022-09-04T09:32:14;20.92;;;15.18;;
15126;SDS011;7664;52.008;4.748;2022-09-04T09:38:28;19.40;;;14.35;;
15126;SDS011;7664;52.008;4.748;2022-09-04T09:41:37;21.30;;;14.50;;
15126;SDS011;7664;52.008;4.748;2022-09-04T09:44:44;18.45;;;13.40;;
15126;SDS011;7664;52.008;4.748;2022-09-04T09:48:03;20.20;;;13.70;;
15126;SDS011;7664;52.008;4.748;2022-09-04T09:51:00;17.70;;;12.13;;
15126;SDS011;7664;52.008;4.748;2022-09-04T10:00:09;14.63;;;11.13;;
15126;SDS011;7664;52.008;4.748;2022-09-04T10:09:00;18.60;;;11.48;;
15126;SDS011;7664;52.008;4.748;2022-09-04T10:15:08;17.30;;;11.63;;
15126;SDS011;7664;52.008;4.748;2022-09-04T10:21:23;27.40;;;14.80;;
15126;SDS011;7664;52.008;4.748;2022-09-04T10:24:20;17.02;;;12.10;;
15126;SDS011;7664;52.008;4.748;2022-09-04T10:27:13;11.60;;;8.35;;
15126;SDS011;7664;52.008;4.748;2022-09-04T10:30:10;12.55;;;8.52;;
15126;SDS011;7664;52.008;4.748;2022-09-04T10:35:55;11.27;;;7.57;;
15126;SDS011;7664;52.008;4.748;2022-09-04T10:38:34;13.02;;;7.80;;
15126;SDS011;7664;52.008;4.748;2022-09-04T10:41:32;16.25;;;11.57;;
15126;SDS011;7664;52.008;4.748;2022-09-04T10:44:12;15.35;;;10.93;;
15126;SDS011;7664;52.008;4.748;2022-09-04T10:46:53;11.70;;;9.05;;
15126;SDS011;7664;52.008;4.748;2022-09-04T10:49:37;11.60;;;8.18;;
15126;SDS011;7664;52.008;4.748;2022-09-04T10:52:43;13.10;;;8.70;;
15126;SDS011;7664;52.008;4.748;2022-09-04T10:55:31;14.80;;;10.27;;
15126;SDS011;7664;52.008;4.748;2022-09-04T10:58:26;18.77;;;11.48;;
15126;SDS011;7664;52.008;4.748;2022-09-04T11:01:09;17.95;;;11.40;;
15126;SDS011;7664;52.008;4.748;2022-09-04T11:10:22;21.65;;;15.70;;
15126;SDS011;7664;52.008;4.748;2022-09-04T11:13:27;35.00;;;25.70;;
15126;SDS011;7664;52.008;4.748;2022-09-04T11:16:22;44.97;;;33.03;;
15126;SDS011;7664;52.008;4.748;2022-09-04T11:19:06;23.67;;;14.82;;
15126;SDS011;7664;52.008;4.748;2022-09-04T11:28:41;20.00;;;15.27;;
15126;SDS011;7664;52.008;4.748;2022-09-04T11:31:41;24.13;;;13.60;;
15126;SDS011;7664;52.008;4.748;2022-09-04T11:34:47;37.80;;;24.80;;
15126;SDS011;7664;52.008;4.748;2022-09-04T11:37:51;17.58;;;10.75;;
15126;SDS011;7664;52.008;4.748;2022-09-04T11:40:54;12.50;;;8.15;;
15126;SDS011;7664;52.008;4.748;2022-09-04T11:43:55;24.65;;;16.77;;
15126;SDS011;7664;52.008;4.748;2022-09-04T11:47:03;20.17;;;12.98;;
15126;SDS011;7664;52.008;4.748;2022-09-04T11:55:57;19.02;;;11.90;;
15126;SDS011;7664;52.008;4.748;2022-09-04T11:58:48;19.40;;;12.43;;
15126;SDS011;7664;52.008;4.748;2022-09-04T12:01:39;18.88;;;12.02;;
15126;SDS011;7664;52.008;4.748;2022-09-04T12:04:26;24.15;;;16.05;;
15126;SDS011;7664;52.008;4.748;2022-09-04T12:07:19;21.42;;;15.93;;
15126;SDS011;7664;52.008;4.748;2022-09-04T12:25:07;10.95;;;6.25;;
15126;SDS011;7664;52.008;4.748;2022-09-04T12:30:55;9.85;;;5.70;;
15126;SDS011;7664;52.008;4.748;2022-09-04T12:33:42;8.77;;;5.25;;
15126;SDS011;7664;52.008;4.748;2022-09-04T12:39:46;8.60;;;4.70;;
15126;SDS011;7664;52.008;4.748;2022-09-04T12:42:36;6.28;;;4.30;;
15126;SDS011;7664;52.008;4.748;2022-09-04T12:45:14;5.85;;;4.20;;
15126;SDS011;7664;52.008;4.748;2022-09-04T12:47:51;8.18;;;4.75;;
15126;SDS011;7664;52.008;4.748;2022-09-04T12:50:31;7.72;;;3.90;;
15126;SDS011;7664;52.008;4.748;2022-09-04T12:53:09;5.05;;;2.80;;
15126;SDS011;7664;52.008;4.748;2022-09-04T12:55:53;5.03;;;3.13;;
15126;SDS011;7664;52.008;4.748;2022-09-04T12:58:30;4.57;;;3.20;;
15126;SDS011;7664;52.008;4.748;2022-09-04T13:01:10;5.28;;;3.08;;
15126;SDS011;7664;52.008;4.748;2022-09-04T13:03:45;5.10;;;2.70;;
15126;SDS011;7664;52.008;4.748;2022-09-04T13:06:24;6.05;;;2.80;;
15126;SDS011;7664;52.008;4.748;2022-09-04T13:09:05;5.13;;;2.97;;
15126;SDS011;7664;52.008;4.748;2022-09-04T13:11:40;3.50;;;2.75;;
15126;SDS011;7664;52.008;4.748;2022-09-04T13:14:23;5.25;;;3.38;;
15126;SDS011;7664;52.008;4.748;2022-09-04T13:17:05;4.63;;;3.63;;
15126;SDS011;7664;52.008;4.748;2022-09-04T13:19:43;4.47;;;3.10;;
15126;SDS011;7664;52.008;4.748;2022-09-04T13:22:23;7.15;;;4.28;;
15126;SDS011;7664;52.008;4.748;2022-09-04T13:24:59;6.18;;;4.03;;
15126;SDS011;7664;52.008;4.748;2022-09-04T13:27:38;9.18;;;5.28;;
15126;SDS011;7664;52.008;4.748;2022-09-04T13:30:17;7.45;;;5.35;;
15126;SDS011;7664;52.008;4.748;2022-09-04T13:32:52;6.15;;;4.50;;
15126;SDS011;7664;52.008;4.748;2022-09-04T13:35:36;7.47;;;4.50;;
15126;SDS011;7664;52.008;4.748;2022-09-04T13:38:17;6.72;;;4.57;;
15126;SDS011;7664;52.008;4.748;2022-09-04T13:47:21;6.55;;;4.13;;
15126;SDS011;7664;52.008;4.748;2022-09-04T13:49:59;6.80;;;4.47;;
15126;SDS011;7664;52.008;4.748;2022-09-04T13:52:35;6.35;;;4.20;;
15126;SDS011;7664;52.008;4.748;2022-09-04T13:55:13;5.68;;;4.00;;
15126;SDS011;7664;52.008;4.748;2022-09-04T13:57:46;5.13;;;3.63;;
15126;SDS011;7664;52.008;4.748;2022-09-04T14:00:22;7.00;;;4.45;;
15126;SDS011;7664;52.008;4.748;2022-09-04T14:02:54;7.72;;;5.22;;
15126;SDS011;7664;52.008;4.748;2022-09-04T14:05:26;5.43;;;4.05;;
15126;SDS011;7664;52.008;4.748;2022-09-04T14:07:58;7.95;;;5.28;;
15126;SDS011;7664;52.008;4.748;2022-09-04T14:10:41;5.28;;;4.03;;
15126;SDS011;7664;52.008;4.748;2022-09-04T14:13:36;4.05;;;2.92;;
15126;SDS011;7664;52.008;4.748;2022-09-04T14:16:36;3.80;;;2.63;;
15126;SDS011;7664;52.008;4.748;2022-09-04T14:19:12;5.70;;;2.42;;
15126;SDS011;7664;52.008;4.748;2022-09-04T14:21:59;3.92;;;2.28;;
15126;SDS011;7664;52.008;4.748;2022-09-04T14:24:41;4.97;;;2.60;;
15126;SDS011;7664;52.008;4.748;2022-09-04T14:27:20;5.18;;;2.92;;
15126;SDS011;7664;52.008;4.748;2022-09-04T14:29:57;4.55;;;2.80;;
15126;SDS011;7664;52.008;4.748;2022-09-04T14:32:34;3.38;;;2.35;;
15126;SDS011;7664;52.008;4.748;2022-09-04T14:35:11;5.00;;;2.30;;
15126;SDS011;7664;52.008;4.748;2022-09-04T14:37:51;2.53;;;1.98;;
15126;SDS011;7664;52.008;4.748;2022-09-04T14:40:33;3.83;;;2.70;;
15126;SDS011;7664;52.008;4.748;2022-09-04T14:43:08;3.28;;;2.35;;
15126;SDS011;7664;52.008;4.748;2022-09-04T14:45:58;2.95;;;1.83;;
15126;SDS011;7664;52.008;4.748;2022-09-04T14:48:33;5.45;;;2.10;;
15126;SDS011;7664;52.008;4.748;2022-09-04T14:51:13;2.10;;;1.83;;
15126;SDS011;7664;52.008;4.748;2022-09-04T14:53:45;5.80;;;2.00;;
15126;SDS011;7664;52.008;4.748;2022-09-04T14:56:19;2.85;;;1.88;;
15126;SDS011;7664;52.008;4.748;2022-09-04T14:58:58;2.80;;;2.10;;
15126;SDS011;7664;52.008;4.748;2022-09-04T15:01:34;7.35;;;2.05;;
15126;SDS011;7664;52.008;4.748;2022-09-04T15:04:06;3.85;;;2.08;;
15126;SDS011;7664;52.008;4.748;2022-09-04T15:06:41;1.90;;;1.70;;
15126;SDS011;7664;52.008;4.748;2022-09-04T15:09:37;4.93;;;3.40;;
15126;SDS011;7664;52.008;4.748;2022-09-04T15:12:13;4.10;;;3.20;;
15126;SDS011;7664;52.008;4.748;2022-09-04T15:14:54;13.20;;;10.45;;
15126;SDS011;7664;52.008;4.748;2022-09-04T15:17:30;28.38;;;18.10;;
15126;SDS011;7664;52.008;4.748;2022-09-04T15:20:03;13.23;;;7.72;;
15126;SDS011;7664;52.008;4.748;2022-09-04T15:22:40;12.00;;;6.88;;
15126;SDS011;7664;52.008;4.748;2022-09-04T15:25:26;4.80;;;3.38;;
15126;SDS011;7664;52.008;4.748;2022-09-04T15:28:26;3.33;;;2.03;;
15126;SDS011;7664;52.008;4.748;2022-09-04T15:31:07;3.88;;;2.10;;
15126;SDS011;7664;52.008;4.748;2022-09-04T15:33:42;5.93;;;2.13;;
15126;SDS011;7664;52.008;4.748;2022-09-04T15:36:13;2.90;;;2.00;;
15126;SDS011;7664;52.008;4.748;2022-09-04T15:38:47;2.78;;;2.03;;
15126;SDS011;7664;52.008;4.748;2022-09-04T15:41:21;3.83;;;2.20;;
15126;SDS011;7664;52.008;4.748;2022-09-04T15:44:06;5.55;;;3.78;;
15126;SDS011;7664;52.008;4.748;2022-09-04T15:46:42;3.33;;;2.35;;
15126;SDS011;7664;52.008;4.748;2022-09-04T15:49:18;5.38;;;3.28;;
15126;SDS011;7664;52.008;4.748;2022-09-04T15:51:53;4.82;;;2.78;;
15126;SDS011;7664;52.008;4.748;2022-09-04T15:54:49;2.30;;;1.60;;
15126;SDS011;7664;52.008;4.748;2022-09-04T15:57:27;1.85;;;1.30;;
15126;SDS011;7664;52.008;4.748;2022-09-04T16:00:01;2.00;;;1.40;;
15126;SDS011;7664;52.008;4.748;2022-09-04T16:02:37;2.22;;;1.77;;
15126;SDS011;7664;52.008;4.748;2022-09-04T16:05:21;1.60;;;1.38;;
15126;SDS011;7664;52.008;4.748;2022-09-04T16:07:54;2.45;;;1.08;;
15126;SDS011;7664;52.008;4.748;2022-09-04T16:10:38;2.95;;;1.40;;
15126;SDS011;7664;52.008;4.748;2022-09-04T16:13:28;2.95;;;1.10;;
15126;SDS011;7664;52.008;4.748;2022-09-04T16:16:14;1.13;;;1.02;;
15126;SDS011;7664;52.008;4.748;2022-09-04T16:18:52;2.13;;;1.10;;
15126;SDS011;7664;52.008;4.748;2022-09-04T16:21:36;3.22;;;1.60;;
15126;SDS011;7664;52.008;4.748;2022-09-04T16:24:11;4.95;;;1.85;;
15126;SDS011;7664;52.008;4.748;2022-09-04T16:26:43;2.63;;;1.40;;
15126;SDS011;7664;52.008;4.748;2022-09-04T16:29:19;1.38;;;1.05;;
15126;SDS011;7664;52.008;4.748;2022-09-04T16:31:57;4.32;;;2.15;;
15126;SDS011;7664;52.008;4.748;2022-09-04T16:34:35;4.65;;;2.10;;
15126;SDS011;7664;52.008;4.748;2022-09-04T16:37:10;7.28;;;1.25;;
15126;SDS011;7664;52.008;4.748;2022-09-04T16:39:45;4.55;;;1.48;;
15126;SDS011;7664;52.008;4.748;2022-09-04T16:42:22;4.25;;;1.25;;
15126;SDS011;7664;52.008;4.748;2022-09-04T16:44:54;1.92;;;0.95;;
15126;SDS011;7664;52.008;4.748;2022-09-04T16:47:29;2.58;;;1.25;;
15126;SDS011;7664;52.008;4.748;2022-09-04T16:50:09;5.32;;;1.10;;
15126;SDS011;7664;52.008;4.748;2022-09-04T16:52:48;1.50;;;1.02;;
15126;SDS011;7664;52.008;4.748;2022-09-04T16:55:40;2.72;;;1.10;;
15126;SDS011;7664;52.008;4.748;2022-09-04T16:58:20;3.38;;;0.93;;
15126;SDS011;7664;52.008;4.748;2022-09-04T17:01:03;2.38;;;0.80;;
15126;SDS011;7664;52.008;4.748;2022-09-04T17:03:41;0.80;;;0.68;;
15126;SDS011;7664;52.008;4.748;2022-09-04T17:06:41;1.27;;;0.68;;
15126;SDS011;7664;52.008;4.748;2022-09-04T17:09:29;2.15;;;0.88;;
15126;SDS011;7664;52.008;4.748;2022-09-04T17:12:30;1.15;;;0.85;;
15126;SDS011;7664;52.008;4.748;2022-09-04T17:15:11;1.25;;;0.65;;
15126;SDS011;7664;52.008;4.748;2022-09-04T17:17:47;2.00;;;1.10;;
15126;SDS011;7664;52.008;4.748;2022-09-04T17:20:23;0.65;;;0.60;;
15126;SDS011;7664;52.008;4.748;2022-09-04T17:23:16;1.27;;;0.68;;
15126;SDS011;7664;52.008;4.748;2022-09-04T17:26:10;1.48;;;0.63;;
15126;SDS011;7664;52.008;4.748;2022-09-04T17:29:00;1.38;;;0.80;;
15126;SDS011;7664;52.008;4.748;2022-09-04T17:31:55;1.38;;;0.93;;
15126;SDS011;7664;52.008;4.748;2022-09-04T17:34:52;2.63;;;0.80;;
15126;SDS011;7664;52.008;4.748;2022-09-04T17:37:44;7.90;;;3.95;;
15126;SDS011;7664;52.008;4.748;2022-09-04T17:40:43;7.85;;;3.72;;
15126;SDS011;7664;52.008;4.748;2022-09-04T17:43:45;6.65;;;4.32;;
15126;SDS011;7664;52.008;4.748;2022-09-04T17:46:29;7.60;;;3.72;;
15126;SDS011;7664;52.008;4.748;2022-09-04T17:52:00;12.95;;;4.55;;
15126;SDS011;7664;52.008;4.748;2022-09-04T17:54:36;7.28;;;4.72;;
15126;SDS011;7664;52.008;4.748;2022-09-04T17:57:10;4.93;;;3.05;;
15126;SDS011;7664;52.008;4.748;2022-09-04T17:59:43;6.47;;;3.65;;
15126;SDS011;7664;52.008;4.748;2022-09-04T18:02:15;6.05;;;3.50;;
15126;SDS011;7664;52.008;4.748;2022-09-04T18:04:51;4.68;;;3.05;;
15126;SDS011;7664;52.008;4.748;2022-09-04T18:07:23;7.55;;;2.92;;
15126;SDS011;7664;52.008;4.748;2022-09-04T18:10:17;8.50;;;3.75;;
15126;SDS011;7664;52.008;4.748;2022-09-04T18:12:55;7.70;;;3.72;;
15126;SDS011;7664;52.008;4.748;2022-09-04T18:15:31;4.22;;;2.53;;